sensor_id;sensor_type;location;lat;lon;timestamp;P1;durP1;ratioP1;P2;durP2;ratioP2
74229;SDS011;62589;12.568;99.958;2024-01-15T00:02:05;43.65;;;30.58;;
74229;SDS011;62589;12.568;99.958;2024-01-15T00:04:36;42.90;;;29.00;;
74229;SDS011;62589;12.568;99.958;2024-01-15T00:07:04;49.70;;;30.98;;
74229;SDS011;62589;12.568;99.958;2024-01-15T00:09:31;39.13;;;28.88;;
74229;SDS011;62589;12.568;99.958;2024-01-15T00:11:57;41.85;;;29.63;;
74229;SDS011;62589;12.568;99.958;2024-01-15T00:14:24;40.20;;;28.70;;
74229;SDS011;62589;12.568;99.958;2024-01-15T00:16:51;43.53;;;29.75;;
74229;SDS011;62589;12.568;99.958;2024-01-15T00:19:23;40.35;;;28.20;;
74229;SDS011;62589;12.568;99.958;2024-01-15T00:21:50;47.55;;;29.30;;
74229;SDS011;62589;12.568;99.958;2024-01-15T00:24:16;40.60;;;30.10;;
74229;SDS011;62589;12.568;99.958;2024-01-15T00:26:43;41.65;;;29.65;;
74229;SDS011;62589;12.568;99.958;2024-01-15T00:29:09;43.45;;;29.90;;
74229;SDS011;62589;12.568;99.958;2024-01-15T00:31:36;38.17;;;28.13;;
74229;SDS011;62589;12.568;99.958;2024-01-15T00:34:02;42.47;;;30.15;;
74229;SDS011;62589;12.568;99.958;2024-01-15T00:36:29;37.45;;;29.73;;
74229;SDS011;62589;12.568;99.958;2024-01-15T00:38:55;41.15;;;28.17;;
74229;SDS011;62589;12.568;99.958;2024-01-15T00:41:21;41.67;;;28.65;;
74229;SDS011;62589;12.568;99.958;2024-01-15T00:43:48;38.78;;;28.38;;
74229;SDS011;62589;12.568;99.958;2024-01-15T00:46:15;40.03;;;28.40;;
74229;SDS011;62589;12.568;99.958;2024-01-15T00:48:41;43.33;;;28.83;;
74229;SDS011;62589;12.568;99.958;2024-01-15T00:51:08;39.10;;;28.17;;
74229;SDS011;62589;12.568;99.958;2024-01-15T00:53:34;41.58;;;28.67;;
74229;SDS011;62589;12.568;99.958;2024-01-15T00:56:01;40.65;;;29.08;;
74229;SDS011;62589;12.568;99.958;2024-01-15T00:58:28;39.50;;;28.67;;
74229;SDS011;62589;12.568;99.958;2024-01-15T01:00:55;45.30;;;28.48;;
74229;SDS011;62589;12.568;99.958;2024-01-15T01:03:21;40.67;;;28.10;;
74229;SDS011;62589;12.568;99.958;2024-01-15T01:05:51;38.00;;;28.90;;
74229;SDS011;62589;12.568;99.958;2024-01-15T01:08:17;40.13;;;27.48;;
74229;SDS011;62589;12.568;99.958;2024-01-15T01:10:43;37.22;;;27.55;;
74229;SDS011;62589;12.568;99.958;2024-01-15T01:13:10;37.72;;;27.88;;
74229;SDS011;62589;12.568;99.958;2024-01-15T01:15:36;43.92;;;28.63;;
74229;SDS011;62589;12.568;99.958;2024-01-15T01:18:04;39.85;;;28.17;;
74229;SDS011;62589;12.568;99.958;2024-01-15T01:20:30;38.80;;;27.90;;
74229;SDS011;62589;12.568;99.958;2024-01-15T01:22:57;39.80;;;28.77;;
74229;SDS011;62589;12.568;99.958;2024-01-15T01:25:23;41.20;;;29.00;;
74229;SDS011;62589;12.568;99.958;2024-01-15T01:27:50;41.28;;;27.67;;
74229;SDS011;62589;12.568;99.958;2024-01-15T01:30:16;34.15;;;26.77;;
74229;SDS011;62589;12.568;99.958;2024-01-15T01:32:43;36.85;;;27.08;;
74229;SDS011;62589;12.568;99.958;2024-01-15T01:35:09;40.47;;;28.65;;
74229;SDS011;62589;12.568;99.958;2024-01-15T01:37:36;44.42;;;29.52;;
74229;SDS011;62589;12.568;99.958;2024-01-15T01:40:02;40.28;;;28.85;;
74229;SDS011;62589;12.568;99.958;2024-01-15T01:42:29;40.50;;;29.60;;
74229;SDS011;62589;12.568;99.958;2024-01-15T01:44:56;40.15;;;28.55;;
74229;SDS011;62589;12.568;99.958;2024-01-15T01:47:22;41.50;;;28.95;;
74229;SDS011;62589;12.568;99.958;2024-01-15T01:49:52;45.58;;;29.55;;
74229;SDS011;62589;12.568;99.958;2024-01-15T01:52:19;39.10;;;28.67;;
74229;SDS011;62589;12.568;99.958;2024-01-15T01:54:46;43.53;;;29.35;;
74229;SDS011;62589;12.568;99.958;2024-01-15T01:57:13;41.63;;;28.85;;
74229;SDS011;62589;12.568;99.958;2024-01-15T01:59:41;43.22;;;29.00;;
74229;SDS011;62589;12.568;99.958;2024-01-15T02:02:07;43.58;;;29.63;;
74229;SDS011;62589;12.568;99.958;2024-01-15T02:04:34;42.35;;;29.35;;
74229;SDS011;62589;12.568;99.958;2024-01-15T02:07:02;39.95;;;28.33;;
74229;SDS011;62589;12.568;99.958;2024-01-15T02:09:29;43.40;;;28.88;;
74229;SDS011;62589;12.568;99.958;2024-01-15T02:11:57;41.78;;;28.80;;
74229;SDS011;62589;12.568;99.958;2024-01-15T02:14:24;41.97;;;29.52;;
74229;SDS011;62589;12.568;99.958;2024-01-15T02:16:50;42.13;;;27.88;;
74229;SDS011;62589;12.568;99.958;2024-01-15T02:19:17;45.28;;;30.50;;
74229;SDS011;62589;12.568;99.958;2024-01-15T02:21:44;44.10;;;30.80;;
74229;SDS011;62589;12.568;99.958;2024-01-15T02:24:11;45.47;;;31.27;;
74229;SDS011;62589;12.568;99.958;2024-01-15T02:26:38;45.35;;;30.63;;
74229;SDS011;62589;12.568;99.958;2024-01-15T02:29:05;45.20;;;30.95;;
74229;SDS011;62589;12.568;99.958;2024-01-15T02:31:36;44.78;;;33.15;;
74229;SDS011;62589;12.568;99.958;2024-01-15T02:34:03;43.38;;;30.08;;
74229;SDS011;62589;12.568;99.958;2024-01-15T02:36:29;48.45;;;32.13;;
74229;SDS011;62589;12.568;99.958;2024-01-15T02:38:56;46.55;;;31.65;;
74229;SDS011;62589;12.568;99.958;2024-01-15T02:41:22;47.55;;;30.33;;
74229;SDS011;62589;12.568;99.958;2024-01-15T02:43:49;41.75;;;30.13;;
74229;SDS011;62589;12.568;99.958;2024-01-15T02:46:15;42.40;;;32.17;;
74229;SDS011;62589;12.568;99.958;2024-01-15T02:48:43;47.55;;;33.28;;
74229;SDS011;62589;12.568;99.958;2024-01-15T02:51:09;50.47;;;32.70;;
74229;SDS011;62589;12.568;99.958;2024-01-15T02:53:36;49.65;;;32.97;;
74229;SDS011;62589;12.568;99.958;2024-01-15T02:56:03;46.60;;;33.10;;
74229;SDS011;62589;12.568;99.958;2024-01-15T02:58:30;46.50;;;31.67;;
74229;SDS011;62589;12.568;99.958;2024-01-15T03:00:56;46.05;;;31.65;;
74229;SDS011;62589;12.568;99.958;2024-01-15T03:03:23;46.83;;;31.55;;
74229;SDS011;62589;12.568;99.958;2024-01-15T03:05:49;41.67;;;29.83;;
74229;SDS011;62589;12.568;99.958;2024-01-15T03:08:16;49.13;;;30.98;;
74229;SDS011;62589;12.568;99.958;2024-01-15T03:10:42;42.95;;;30.50;;
74229;SDS011;62589;12.568;99.958;2024-01-15T03:13:11;44.53;;;30.27;;
74229;SDS011;62589;12.568;99.958;2024-01-15T03:15:38;43.88;;;29.05;;
74229;SDS011;62589;12.568;99.958;2024-01-15T03:18:05;43.83;;;30.08;;
74229;SDS011;62589;12.568;99.958;2024-01-15T03:20:32;42.08;;;28.13;;
74229;SDS011;62589;12.568;99.958;2024-01-15T03:22:58;42.95;;;29.70;;
74229;SDS011;62589;12.568;99.958;2024-01-15T03:25:26;42.60;;;28.98;;
74229;SDS011;62589;12.568;99.958;2024-01-15T03:27:52;36.88;;;27.83;;
74229;SDS011;62589;12.568;99.958;2024-01-15T03:30:19;43.72;;;29.73;;
74229;SDS011;62589;12.568;99.958;2024-01-15T03:32:45;42.47;;;28.17;;
74229;SDS011;62589;12.568;99.958;2024-01-15T03:35:12;36.00;;;25.38;;
74229;SDS011;62589;12.568;99.958;2024-01-15T03:37:40;37.97;;;25.05;;
74229;SDS011;62589;12.568;99.958;2024-01-15T03:40:06;39.88;;;25.23;;
74229;SDS011;62589;12.568;99.958;2024-01-15T03:42:33;26.92;;;21.20;;
74229;SDS011;62589;12.568;99.958;2024-01-15T03:45:00;33.22;;;18.65;;
74229;SDS011;62589;12.568;99.958;2024-01-15T03:47:26;21.02;;;16.08;;
74229;SDS011;62589;12.568;99.958;2024-01-15T03:49:53;24.13;;;15.20;;
74229;SDS011;62589;12.568;99.958;2024-01-15T03:52:19;23.55;;;14.05;;
74229;SDS011;62589;12.568;99.958;2024-01-15T03:54:47;18.33;;;12.93;;
74229;SDS011;62589;12.568;99.958;2024-01-15T03:57:14;17.33;;;12.48;;
74229;SDS011;62589;12.568;99.958;2024-01-15T03:59:41;20.15;;;12.50;;
74229;SDS011;62589;12.568;99.958;2024-01-15T04:02:07;21.58;;;13.20;;
74229;SDS011;62589;12.568;99.958;2024-01-15T04:04:34;17.63;;;12.07;;
74229;SDS011;62589;12.568;99.958;2024-01-15T04:07:01;19.20;;;11.90;;
74229;SDS011;62589;12.568;99.958;2024-01-15T04:09:27;21.15;;;12.75;;
74229;SDS011;62589;12.568;99.958;2024-01-15T04:11:53;17.77;;;12.48;;
74229;SDS011;62589;12.568;99.958;2024-01-15T04:14:21;21.92;;;13.35;;
74229;SDS011;62589;12.568;99.958;2024-01-15T04:16:51;18.95;;;13.25;;
74229;SDS011;62589;12.568;99.958;2024-01-15T04:19:18;19.27;;;12.43;;
74229;SDS011;62589;12.568;99.958;2024-01-15T04:21:45;17.15;;;11.70;;
74229;SDS011;62589;12.568;99.958;2024-01-15T04:24:11;19.17;;;12.15;;
74229;SDS011;62589;12.568;99.958;2024-01-15T04:26:38;16.52;;;10.93;;
74229;SDS011;62589;12.568;99.958;2024-01-15T04:29:04;14.02;;;10.23;;
74229;SDS011;62589;12.568;99.958;2024-01-15T04:31:33;14.60;;;10.65;;
74229;SDS011;62589;12.568;99.958;2024-01-15T04:33:59;15.88;;;10.32;;
74229;SDS011;62589;12.568;99.958;2024-01-15T04:36:26;16.75;;;10.52;;
74229;SDS011;62589;12.568;99.958;2024-01-15T04:38:52;15.35;;;10.18;;
74229;SDS011;62589;12.568;99.958;2024-01-15T04:41:21;13.85;;;8.77;;
74229;SDS011;62589;12.568;99.958;2024-01-15T04:43:51;17.13;;;9.65;;
74229;SDS011;62589;12.568;99.958;2024-01-15T04:46:18;13.95;;;9.70;;
74229;SDS011;62589;12.568;99.958;2024-01-15T04:48:49;16.35;;;10.10;;
74229;SDS011;62589;12.568;99.958;2024-01-15T04:51:15;16.50;;;9.52;;
74229;SDS011;62589;12.568;99.958;2024-01-15T04:53:42;14.40;;;8.30;;
74229;SDS011;62589;12.568;99.958;2024-01-15T04:56:08;13.07;;;8.55;;
74229;SDS011;62589;12.568;99.958;2024-01-15T04:58:35;14.90;;;8.07;;
74229;SDS011;62589;12.568;99.958;2024-01-15T05:01:01;14.18;;;8.98;;
74229;SDS011;62589;12.568;99.958;2024-01-15T05:03:30;18.77;;;9.48;;
74229;SDS011;62589;12.568;99.958;2024-01-15T05:05:57;14.13;;;8.68;;
74229;SDS011;62589;12.568;99.958;2024-01-15T05:08:23;14.85;;;8.30;;
74229;SDS011;62589;12.568;99.958;2024-01-15T05:10:53;11.50;;;7.82;;
74229;SDS011;62589;12.568;99.958;2024-01-15T05:13:20;15.55;;;8.32;;
74229;SDS011;62589;12.568;99.958;2024-01-15T05:15:46;16.00;;;8.40;;
74229;SDS011;62589;12.568;99.958;2024-01-15T05:18:13;12.65;;;8.90;;
74229;SDS011;62589;12.568;99.958;2024-01-15T05:20:39;14.38;;;8.95;;
74229;SDS011;62589;12.568;99.958;2024-01-15T05:23:06;12.05;;;8.18;;
74229;SDS011;62589;12.568;99.958;2024-01-15T05:25:34;16.45;;;8.95;;
74229;SDS011;62589;12.568;99.958;2024-01-15T05:28:02;15.45;;;9.18;;
74229;SDS011;62589;12.568;99.958;2024-01-15T05:30:30;14.80;;;8.63;;
74229;SDS011;62589;12.568;99.958;2024-01-15T05:32:56;14.20;;;9.23;;
74229;SDS011;62589;12.568;99.958;2024-01-15T05:35:26;13.00;;;8.57;;
74229;SDS011;62589;12.568;99.958;2024-01-15T05:37:53;12.23;;;8.98;;
74229;SDS011;62589;12.568;99.958;2024-01-15T05:40:21;15.18;;;9.13;;
74229;SDS011;62589;12.568;99.958;2024-01-15T05:42:47;15.77;;;9.13;;
74229;SDS011;62589;12.568;99.958;2024-01-15T05:45:14;13.27;;;8.43;;
74229;SDS011;62589;12.568;99.958;2024-01-15T05:47:40;13.93;;;8.52;;
74229;SDS011;62589;12.568;99.958;2024-01-15T05:50:07;12.18;;;8.07;;
74229;SDS011;62589;12.568;99.958;2024-01-15T05:52:34;16.83;;;7.97;;
74229;SDS011;62589;12.568;99.958;2024-01-15T05:55:00;13.43;;;8.73;;
74229;SDS011;62589;12.568;99.958;2024-01-15T05:57:27;14.05;;;8.70;;
74229;SDS011;62589;12.568;99.958;2024-01-15T05:59:54;11.98;;;8.55;;
74229;SDS011;62589;12.568;99.958;2024-01-15T06:02:20;11.75;;;8.23;;
74229;SDS011;62589;12.568;99.958;2024-01-15T06:04:47;17.27;;;8.63;;
74229;SDS011;62589;12.568;99.958;2024-01-15T06:07:16;15.27;;;8.88;;
74229;SDS011;62589;12.568;99.958;2024-01-15T06:09:43;17.73;;;8.50;;
74229;SDS011;62589;12.568;99.958;2024-01-15T06:12:09;14.25;;;8.00;;
74229;SDS011;62589;12.568;99.958;2024-01-15T06:14:41;12.93;;;8.30;;
74229;SDS011;62589;12.568;99.958;2024-01-15T06:17:08;13.93;;;8.15;;
74229;SDS011;62589;12.568;99.958;2024-01-15T06:19:34;11.82;;;7.75;;
74229;SDS011;62589;12.568;99.958;2024-01-15T06:22:01;12.40;;;8.35;;
74229;SDS011;62589;12.568;99.958;2024-01-15T06:24:28;12.27;;;8.00;;
74229;SDS011;62589;12.568;99.958;2024-01-15T06:26:54;9.85;;;7.80;;
74229;SDS011;62589;12.568;99.958;2024-01-15T06:29:21;12.40;;;7.45;;
74229;SDS011;62589;12.568;99.958;2024-01-15T06:31:51;13.05;;;7.50;;
74229;SDS011;62589;12.568;99.958;2024-01-15T06:34:17;14.65;;;7.80;;
74229;SDS011;62589;12.568;99.958;2024-01-15T06:36:47;10.73;;;7.95;;
74229;SDS011;62589;12.568;99.958;2024-01-15T06:39:14;13.35;;;7.78;;
74229;SDS011;62589;12.568;99.958;2024-01-15T06:41:41;12.93;;;8.00;;
74229;SDS011;62589;12.568;99.958;2024-01-15T06:44:09;13.30;;;7.60;;
74229;SDS011;62589;12.568;99.958;2024-01-15T06:46:36;11.32;;;7.80;;
74229;SDS011;62589;12.568;99.958;2024-01-15T06:49:07;12.23;;;7.63;;
74229;SDS011;62589;12.568;99.958;2024-01-15T06:51:34;11.82;;;7.70;;
74229;SDS011;62589;12.568;99.958;2024-01-15T06:54:01;15.48;;;7.63;;
74229;SDS011;62589;12.568;99.958;2024-01-15T06:56:27;12.80;;;7.53;;
74229;SDS011;62589;12.568;99.958;2024-01-15T06:58:54;12.90;;;7.72;;
74229;SDS011;62589;12.568;99.958;2024-01-15T07:01:20;10.80;;;8.00;;
74229;SDS011;62589;12.568;99.958;2024-01-15T07:03:47;14.05;;;8.10;;
74229;SDS011;62589;12.568;99.958;2024-01-15T07:06:13;18.67;;;7.93;;
74229;SDS011;62589;12.568;99.958;2024-01-15T07:08:40;14.88;;;8.80;;
74229;SDS011;62589;12.568;99.958;2024-01-15T07:11:07;9.98;;;7.93;;
74229;SDS011;62589;12.568;99.958;2024-01-15T07:13:34;12.38;;;8.60;;
74229;SDS011;62589;12.568;99.958;2024-01-15T07:16:03;10.30;;;8.00;;
74229;SDS011;62589;12.568;99.958;2024-01-15T07:18:29;12.73;;;8.30;;
74229;SDS011;62589;12.568;99.958;2024-01-15T07:20:56;11.43;;;8.35;;
74229;SDS011;62589;12.568;99.958;2024-01-15T07:23:22;13.60;;;9.15;;
74229;SDS011;62589;12.568;99.958;2024-01-15T07:25:49;14.13;;;8.27;;
74229;SDS011;62589;12.568;99.958;2024-01-15T07:28:17;10.15;;;7.68;;
74229;SDS011;62589;12.568;99.958;2024-01-15T07:30:44;9.30;;;7.45;;
74229;SDS011;62589;12.568;99.958;2024-01-15T07:33:10;14.80;;;8.13;;
74229;SDS011;62589;12.568;99.958;2024-01-15T07:35:37;13.93;;;8.43;;
74229;SDS011;62589;12.568;99.958;2024-01-15T07:38:04;15.07;;;8.75;;
74229;SDS011;62589;12.568;99.958;2024-01-15T07:40:30;13.73;;;7.82;;
74229;SDS011;62589;12.568;99.958;2024-01-15T07:42:57;11.18;;;8.40;;
74229;SDS011;62589;12.568;99.958;2024-01-15T07:45:23;12.13;;;8.27;;
74229;SDS011;62589;12.568;99.958;2024-01-15T07:47:50;12.45;;;8.48;;
74229;SDS011;62589;12.568;99.958;2024-01-15T07:50:17;13.35;;;8.48;;
74229;SDS011;62589;12.568;99.958;2024-01-15T07:52:44;11.98;;;8.02;;
74229;SDS011;62589;12.568;99.958;2024-01-15T07:55:12;13.52;;;8.27;;
74229;SDS011;62589;12.568;99.958;2024-01-15T07:57:41;15.43;;;8.82;;
74229;SDS011;62589;12.568;99.958;2024-01-15T08:00:08;14.15;;;8.27;;
74229;SDS011;62589;12.568;99.958;2024-01-15T08:02:36;13.05;;;8.57;;
74229;SDS011;62589;12.568;99.958;2024-01-15T08:05:02;12.50;;;8.40;;
74229;SDS011;62589;12.568;99.958;2024-01-15T08:07:31;9.77;;;7.90;;
74229;SDS011;62589;12.568;99.958;2024-01-15T08:09:58;11.70;;;8.55;;
74229;SDS011;62589;12.568;99.958;2024-01-15T08:12:24;17.30;;;9.45;;
74229;SDS011;62589;12.568;99.958;2024-01-15T08:14:51;13.93;;;8.82;;
74229;SDS011;62589;12.568;99.958;2024-01-15T08:17:17;13.52;;;8.60;;
74229;SDS011;62589;12.568;99.958;2024-01-15T08:19:44;14.50;;;8.30;;
74229;SDS011;62589;12.568;99.958;2024-01-15T08:22:11;18.23;;;8.93;;
74229;SDS011;62589;12.568;99.958;2024-01-15T08:24:38;15.60;;;9.00;;
74229;SDS011;62589;12.568;99.958;2024-01-15T08:27:04;12.75;;;8.57;;
74229;SDS011;62589;12.568;99.958;2024-01-15T08:29:31;13.02;;;8.50;;
74229;SDS011;62589;12.568;99.958;2024-01-15T08:31:59;12.98;;;9.00;;
74229;SDS011;62589;12.568;99.958;2024-01-15T08:34:25;15.13;;;9.35;;
74229;SDS011;62589;12.568;99.958;2024-01-15T08:36:52;11.38;;;8.02;;
74229;SDS011;62589;12.568;99.958;2024-01-15T08:39:18;14.88;;;8.25;;
74229;SDS011;62589;12.568;99.958;2024-01-15T08:41:45;12.13;;;8.40;;
74229;SDS011;62589;12.568;99.958;2024-01-15T08:44:12;12.88;;;8.48;;
74229;SDS011;62589;12.568;99.958;2024-01-15T08:46:39;12.98;;;9.07;;
74229;SDS011;62589;12.568;99.958;2024-01-15T08:49:05;14.02;;;8.32;;
74229;SDS011;62589;12.568;99.958;2024-01-15T08:51:32;12.50;;;7.93;;
74229;SDS011;62589;12.568;99.958;2024-01-15T08:53:59;13.63;;;8.60;;
74229;SDS011;62589;12.568;99.958;2024-01-15T08:56:26;11.27;;;8.05;;
74229;SDS011;62589;12.568;99.958;2024-01-15T08:58:52;11.43;;;7.75;;
74229;SDS011;62589;12.568;99.958;2024-01-15T09:01:19;11.15;;;8.23;;
74229;SDS011;62589;12.568;99.958;2024-01-15T09:03:45;10.75;;;8.38;;
74229;SDS011;62589;12.568;99.958;2024-01-15T09:06:13;10.38;;;8.40;;
74229;SDS011;62589;12.568;99.958;2024-01-15T09:08:40;13.48;;;8.80;;
74229;SDS011;62589;12.568;99.958;2024-01-15T09:11:06;13.40;;;8.05;;
74229;SDS011;62589;12.568;99.958;2024-01-15T09:13:33;15.77;;;8.23;;
74229;SDS011;62589;12.568;99.958;2024-01-15T09:15:59;17.65;;;9.10;;
74229;SDS011;62589;12.568;99.958;2024-01-15T09:18:26;14.05;;;8.48;;
74229;SDS011;62589;12.568;99.958;2024-01-15T09:20:53;12.75;;;7.97;;
74229;SDS011;62589;12.568;99.958;2024-01-15T09:23:19;9.98;;;7.95;;
74229;SDS011;62589;12.568;99.958;2024-01-15T09:25:46;14.52;;;8.80;;
74229;SDS011;62589;12.568;99.958;2024-01-15T09:28:14;16.23;;;8.27;;
74229;SDS011;62589;12.568;99.958;2024-01-15T09:30:40;11.70;;;8.43;;
74229;SDS011;62589;12.568;99.958;2024-01-15T09:33:09;12.10;;;8.48;;
74229;SDS011;62589;12.568;99.958;2024-01-15T09:35:36;12.40;;;8.13;;
74229;SDS011;62589;12.568;99.958;2024-01-15T09:38:03;13.18;;;8.43;;
74229;SDS011;62589;12.568;99.958;2024-01-15T09:40:31;11.57;;;7.93;;
74229;SDS011;62589;12.568;99.958;2024-01-15T09:43:01;13.27;;;8.20;;
74229;SDS011;62589;12.568;99.958;2024-01-15T09:45:28;13.43;;;8.85;;
74229;SDS011;62589;12.568;99.958;2024-01-15T09:47:56;15.40;;;8.48;;
74229;SDS011;62589;12.568;99.958;2024-01-15T09:50:22;10.50;;;7.93;;
74229;SDS011;62589;12.568;99.958;2024-01-15T09:52:49;10.30;;;7.90;;
74229;SDS011;62589;12.568;99.958;2024-01-15T09:55:17;14.10;;;8.55;;
74229;SDS011;62589;12.568;99.958;2024-01-15T09:57:47;15.82;;;8.50;;
74229;SDS011;62589;12.568;99.958;2024-01-15T10:00:17;13.13;;;8.10;;
74229;SDS011;62589;12.568;99.958;2024-01-15T10:02:44;12.52;;;8.75;;
74229;SDS011;62589;12.568;99.958;2024-01-15T10:05:13;11.80;;;8.13;;
74229;SDS011;62589;12.568;99.958;2024-01-15T10:07:40;13.40;;;8.10;;
74229;SDS011;62589;12.568;99.958;2024-01-15T10:10:07;16.77;;;8.77;;
74229;SDS011;62589;12.568;99.958;2024-01-15T10:12:34;15.95;;;8.95;;
74229;SDS011;62589;12.568;99.958;2024-01-15T10:15:01;13.43;;;8.23;;
74229;SDS011;62589;12.568;99.958;2024-01-15T10:17:29;14.70;;;8.77;;
74229;SDS011;62589;12.568;99.958;2024-01-15T10:19:56;13.68;;;8.25;;
74229;SDS011;62589;12.568;99.958;2024-01-15T10:22:25;9.23;;;7.57;;
74229;SDS011;62589;12.568;99.958;2024-01-15T10:24:52;12.93;;;8.05;;
74229;SDS011;62589;12.568;99.958;2024-01-15T10:27:18;12.15;;;8.13;;
74229;SDS011;62589;12.568;99.958;2024-01-15T10:29:45;14.73;;;8.52;;
74229;SDS011;62589;12.568;99.958;2024-01-15T10:32:11;12.35;;;8.50;;
74229;SDS011;62589;12.568;99.958;2024-01-15T10:34:38;11.95;;;8.18;;
74229;SDS011;62589;12.568;99.958;2024-01-15T10:37:09;12.10;;;8.52;;
74229;SDS011;62589;12.568;99.958;2024-01-15T10:39:36;10.85;;;7.93;;
74229;SDS011;62589;12.568;99.958;2024-01-15T10:42:03;10.85;;;8.25;;
74229;SDS011;62589;12.568;99.958;2024-01-15T10:44:30;13.18;;;9.05;;
74229;SDS011;62589;12.568;99.958;2024-01-15T10:46:56;14.88;;;8.90;;
74229;SDS011;62589;12.568;99.958;2024-01-15T10:49:23;13.93;;;9.45;;
74229;SDS011;62589;12.568;99.958;2024-01-15T10:51:54;13.73;;;8.65;;
74229;SDS011;62589;12.568;99.958;2024-01-15T10:54:22;14.70;;;9.48;;
74229;SDS011;62589;12.568;99.958;2024-01-15T10:56:50;13.10;;;9.35;;
74229;SDS011;62589;12.568;99.958;2024-01-15T10:59:17;12.43;;;9.15;;
74229;SDS011;62589;12.568;99.958;2024-01-15T11:01:49;13.18;;;9.30;;
74229;SDS011;62589;12.568;99.958;2024-01-15T11:04:21;13.90;;;9.55;;
74229;SDS011;62589;12.568;99.958;2024-01-15T11:06:53;12.98;;;9.20;;
74229;SDS011;62589;12.568;99.958;2024-01-15T11:09:21;15.98;;;9.27;;
74229;SDS011;62589;12.568;99.958;2024-01-15T11:11:52;13.02;;;9.50;;
74229;SDS011;62589;12.568;99.958;2024-01-15T11:14:44;12.18;;;8.90;;
74229;SDS011;62589;12.568;99.958;2024-01-15T11:17:13;11.82;;;9.02;;
74229;SDS011;62589;12.568;99.958;2024-01-15T11:24:57;14.50;;;9.15;;
74229;SDS011;62589;12.568;99.958;2024-01-15T11:27:41;12.45;;;9.10;;
74229;SDS011;62589;12.568;99.958;2024-01-15T11:30:12;12.82;;;9.27;;
74229;SDS011;62589;12.568;99.958;2024-01-15T11:32:40;13.85;;;9.77;;
74229;SDS011;62589;12.568;99.958;2024-01-15T11:35:10;16.40;;;8.85;;
74229;SDS011;62589;12.568;99.958;2024-01-15T11:40:17;16.95;;;8.50;;
74229;SDS011;62589;12.568;99.958;2024-01-15T11:42:48;15.23;;;8.75;;
74229;SDS011;62589;12.568;99.958;2024-01-15T11:45:20;15.10;;;9.20;;
74229;SDS011;62589;12.568;99.958;2024-01-15T11:48:09;13.38;;;9.52;;
74229;SDS011;62589;12.568;99.958;2024-01-15T11:50:43;14.77;;;9.13;;
74229;SDS011;62589;12.568;99.958;2024-01-15T11:53:32;15.23;;;8.32;;
74229;SDS011;62589;12.568;99.958;2024-01-15T11:56:16;17.60;;;9.23;;
74229;SDS011;62589;12.568;99.958;2024-01-15T11:58:43;14.50;;;9.27;;
74229;SDS011;62589;12.568;99.958;2024-01-15T12:01:12;13.02;;;9.88;;
74229;SDS011;62589;12.568;99.958;2024-01-15T12:03:39;14.98;;;10.63;;
74229;SDS011;62589;12.568;99.958;2024-01-15T12:06:06;14.77;;;11.32;;
74229;SDS011;62589;12.568;99.958;2024-01-15T12:08:32;14.57;;;11.30;;
74229;SDS011;62589;12.568;99.958;2024-01-15T12:11:00;13.32;;;10.63;;
74229;SDS011;62589;12.568;99.958;2024-01-15T12:13:30;14.70;;;10.82;;
74229;SDS011;62589;12.568;99.958;2024-01-15T12:15:57;16.92;;;10.70;;
74229;SDS011;62589;12.568;99.958;2024-01-15T12:18:23;16.40;;;10.48;;
74229;SDS011;62589;12.568;99.958;2024-01-15T12:20:53;17.48;;;12.80;;
74229;SDS011;62589;12.568;99.958;2024-01-15T12:23:20;13.98;;;12.55;;
74229;SDS011;62589;12.568;99.958;2024-01-15T12:25:46;17.25;;;12.40;;
74229;SDS011;62589;12.568;99.958;2024-01-15T12:28:13;17.35;;;11.07;;
74229;SDS011;62589;12.568;99.958;2024-01-15T12:30:41;17.15;;;11.85;;
74229;SDS011;62589;12.568;99.958;2024-01-15T12:33:08;14.77;;;11.40;;
74229;SDS011;62589;12.568;99.958;2024-01-15T12:35:34;15.50;;;10.07;;
74229;SDS011;62589;12.568;99.958;2024-01-15T12:38:01;16.00;;;10.52;;
74229;SDS011;62589;12.568;99.958;2024-01-15T12:40:28;16.60;;;10.68;;
74229;SDS011;62589;12.568;99.958;2024-01-15T12:42:56;14.82;;;10.60;;
74229;SDS011;62589;12.568;99.958;2024-01-15T12:45:23;14.10;;;10.68;;
74229;SDS011;62589;12.568;99.958;2024-01-15T12:47:50;16.63;;;10.77;;
74229;SDS011;62589;12.568;99.958;2024-01-15T12:50:16;12.95;;;10.00;;
74229;SDS011;62589;12.568;99.958;2024-01-15T12:52:43;16.25;;;10.85;;
74229;SDS011;62589;12.568;99.958;2024-01-15T12:55:13;16.42;;;10.70;;
74229;SDS011;62589;12.568;99.958;2024-01-15T12:57:40;13.98;;;10.20;;
74229;SDS011;62589;12.568;99.958;2024-01-15T13:00:06;18.63;;;11.45;;
74229;SDS011;62589;12.568;99.958;2024-01-15T13:02:38;47.28;;;30.55;;
74229;SDS011;62589;12.568;99.958;2024-01-15T13:05:11;84.95;;;58.58;;
74229;SDS011;62589;12.568;99.958;2024-01-15T13:07:38;67.30;;;42.97;;
74229;SDS011;62589;12.568;99.958;2024-01-15T13:10:05;69.60;;;45.05;;
74229;SDS011;62589;12.568;99.958;2024-01-15T13:12:33;43.75;;;29.48;;
74229;SDS011;62589;12.568;99.958;2024-01-15T13:15:01;26.38;;;17.55;;
74229;SDS011;62589;12.568;99.958;2024-01-15T13:17:30;25.73;;;18.67;;
74229;SDS011;62589;12.568;99.958;2024-01-15T13:19:57;22.77;;;14.75;;
74229;SDS011;62589;12.568;99.958;2024-01-15T13:22:23;19.65;;;13.48;;
74229;SDS011;62589;12.568;99.958;2024-01-15T13:24:55;17.58;;;11.65;;
74229;SDS011;62589;12.568;99.958;2024-01-15T13:27:22;17.33;;;11.60;;
74229;SDS011;62589;12.568;99.958;2024-01-15T13:29:48;14.30;;;11.13;;
74229;SDS011;62589;12.568;99.958;2024-01-15T13:32:16;13.88;;;10.40;;
74229;SDS011;62589;12.568;99.958;2024-01-15T13:34:48;15.80;;;10.48;;
74229;SDS011;62589;12.568;99.958;2024-01-15T13:37:14;12.85;;;10.05;;
74229;SDS011;62589;12.568;99.958;2024-01-15T13:39:41;17.48;;;10.63;;
74229;SDS011;62589;12.568;99.958;2024-01-15T13:42:07;59.08;;;37.70;;
74229;SDS011;62589;12.568;99.958;2024-01-15T13:44:33;46.85;;;33.03;;
74229;SDS011;62589;12.568;99.958;2024-01-15T13:47:01;56.95;;;38.22;;
74229;SDS011;62589;12.568;99.958;2024-01-15T13:49:27;44.05;;;29.88;;
74229;SDS011;62589;12.568;99.958;2024-01-15T13:51:54;30.80;;;19.80;;
74229;SDS011;62589;12.568;99.958;2024-01-15T13:54:21;31.48;;;20.80;;
74229;SDS011;62589;12.568;99.958;2024-01-15T13:56:47;82.65;;;51.95;;
74229;SDS011;62589;12.568;99.958;2024-01-15T13:59:15;72.30;;;43.90;;
74229;SDS011;62589;12.568;99.958;2024-01-15T14:01:42;41.13;;;27.58;;
74229;SDS011;62589;12.568;99.958;2024-01-15T14:04:08;33.50;;;21.98;;
74229;SDS011;62589;12.568;99.958;2024-01-15T14:06:35;24.58;;;16.52;;
74229;SDS011;62589;12.568;99.958;2024-01-15T14:09:01;21.58;;;14.20;;
74229;SDS011;62589;12.568;99.958;2024-01-15T14:11:30;19.20;;;12.65;;
74229;SDS011;62589;12.568;99.958;2024-01-15T14:13:56;19.02;;;13.13;;
74229;SDS011;62589;12.568;99.958;2024-01-15T14:16:23;19.33;;;11.93;;
74229;SDS011;62589;12.568;99.958;2024-01-15T14:18:49;14.18;;;11.15;;
74229;SDS011;62589;12.568;99.958;2024-01-15T14:21:16;14.52;;;10.57;;
74229;SDS011;62589;12.568;99.958;2024-01-15T14:23:42;16.40;;;11.27;;
74229;SDS011;62589;12.568;99.958;2024-01-15T14:26:09;16.25;;;11.35;;